Terminal Aerodrome Forecast
Issued by NWS

Current Version | Previous Version | Graphics & Text | Print | Product List | Glossary On
Versions: 1 2 3 4 5 6 7 8 9 10 11 12 13 14 15 16 17 18 19 20 21 22 23 24 25 26
708
FTUS41 KPBZ 012335
TAFMGW
TAF
KMGW 012335Z 0200/0224 03006KT P6SM VCTS SCT040CB BKN090
     FM020300 VRB03KT P6SM BKN090
     FM020800 20006KT P6SM VCSH OVC050
     FM021200 22007KT P6SM VCSH BKN035
     FM021600 25009KT P6SM BKN050=

USA.gov is the U.S. government's official web portal to all federal, state and local government web resources and services.